Time;durP1;ratioP1;P1;durP2;ratioP2;P2;SDS_P1;SDS_P2;PMS_P1;PMS_P2;Temp;Humidity;BMP_temperature;BMP_pressure;BME280_temperature;BME280_humidity;BME280_pressure;Samples;Min_cycle;Max_cycle;Signal;HPM_P1;HPM_P2
2021/12/08 00:00:44;;;;;;;45.90;27.52;;;;;;;-7.35;89.56;99521.36;1804966;77;21068;-71
2021/12/08 00:03:14;;;;;;;46.37;27.67;;;;;;;-7.35;89.55;99528.55;1808119;78;20989;-71
2021/12/08 00:05:44;;;;;;;45.35;26.80;;;;;;;-7.33;89.64;99537.47;1800735;77;21006;-71
2021/12/08 00:08:15;;;;;;;42.73;27.70;;;;;;;-7.30;89.66;99536.27;1778197;78;21006;-71
2021/12/08 00:13:17;;;;;;;38.33;23.65;;;;;;;-7.30;89.67;99528.24;1808165;78;21076;-71
2021/12/08 00:15:49;;;;;;;46.92;28.83;;;;;;;-7.31;89.60;99518.05;1810700;77;21015;-72
2021/12/08 00:18:25;;;;;;;28.65;16.23;;;;;;;-7.35;89.56;99513.75;1802527;78;21057;-71
2021/12/08 00:20:56;;;;;;;34.45;20.55;;;;;;;-7.38;89.60;99503.54;1807692;77;20935;-71
2021/12/08 00:23:24;;;;;;;32.53;19.55;;;;;;;-7.41;89.66;99491.65;1809523;77;20967;-71
2021/12/08 00:25:52;;;;;;;38.45;22.48;;;;;;;-7.45;89.70;99489.47;1771743;78;22054;-71
2021/12/08 00:28:20;;;;;;;50.38;25.45;;;;;;;-7.51;89.69;99495.66;1802105;77;21515;-71
2021/12/08 00:30:51;;;;;;;35.20;18.82;;;;;;;-7.51;89.85;99493.11;1819836;78;21550;-71
2021/12/08 00:33:20;;;;;;;45.00;24.25;;;;;;;-7.53;89.88;99487.18;1815548;77;21449;-71
2021/12/08 00:35:49;;;;;;;48.30;27.00;;;;;;;-7.54;89.98;99485.45;1804889;77;21471;-71
2021/12/08 00:38:18;;;;;;;62.53;31.65;;;;;;;-7.56;89.98;99474.44;1806812;78;21542;-71
2021/12/08 00:40:46;;;;;;;37.48;19.87;;;;;;;-7.60;89.96;99467.57;1810117;77;20980;-71
2021/12/08 00:43:15;;;;;;;54.23;25.52;;;;;;;-7.65;89.84;99464.08;1809697;77;20941;-71
2021/12/08 00:45:43;;;;;;;50.40;28.52;;;;;;;-7.70;89.88;99452.97;1798193;78;21136;-72
2021/12/08 00:48:11;;;;;;;53.52;27.75;;;;;;;-7.73;89.94;99452.91;1773166;79;20958;-71
2021/12/08 00:50:39;;;;;;;59.10;34.27;;;;;;;-7.76;89.99;99449.05;1798473;78;21130;-72
2021/12/08 00:53:08;;;;;;;60.40;33.18;;;;;;;-7.73;90.09;99452.91;1801056;77;20950;-71
2021/12/08 00:55:36;;;;;;;56.90;32.38;;;;;;;-7.69;90.19;99463.16;1796663;79;21660;-71
2021/12/08 00:58:05;;;;;;;63.63;33.33;;;;;;;-7.63;90.24;99477.65;1803608;77;20907;-71
2021/12/08 01:00:39;;;;;;;60.43;34.27;;;;;;;-7.59;90.24;99484.48;1790400;77;21496;-71
2021/12/08 01:03:07;;;;;;;61.18;35.58;;;;;;;-7.56;90.16;99490.92;1791921;77;21085;-71
2021/12/08 01:05:42;;;;;;;59.08;32.55;;;;;;;-7.55;90.07;99502.77;1798243;77;20925;-70
2021/12/08 01:08:10;;;;;;;63.00;33.13;;;;;;;-7.53;90.09;99497.32;1799885;77;20971;-71
2021/12/08 01:10:40;;;;;;;63.10;35.45;;;;;;;-7.49;90.08;99499.09;1796529;78;20964;-71
2021/12/08 01:13:10;;;;;;;63.60;34.43;;;;;;;-7.47;90.07;99501.67;1801969;77;21455;-71
2021/12/08 01:15:41;;;;;;;59.88;34.67;;;;;;;-7.47;90.06;99498.72;1796744;77;21057;-70
2021/12/08 01:18:08;;;;;;;56.55;28.27;;;;;;;-7.45;90.05;99505.95;1796809;78;21597;-70
2021/12/08 01:20:36;;;;;;;54.93;28.70;;;;;;;-7.47;90.05;99491.11;1799889;79;26901;-70
2021/12/08 01:23:05;;;;;;;72.25;35.00;;;;;;;-7.53;89.90;99494.78;1802860;78;21019;-70
2021/12/08 01:25:31;;;;;;;55.20;28.65;;;;;;;-7.58;89.76;99485.37;1805250;78;20928;-70
2021/12/08 01:27:59;;;;;;;61.50;32.38;;;;;;;-7.63;89.84;99467.51;1798199;77;22062;-70
2021/12/08 01:30:26;;;;;;;66.85;34.48;;;;;;;-7.69;89.79;99478.38;1798134;79;22062;-70
2021/12/08 01:32:53;;;;;;;60.80;33.63;;;;;;;-7.75;89.79;99480.78;1797694;79;21027;-70
2021/12/08 01:35:21;;;;;;;67.92;34.45;;;;;;;-7.74;89.93;99486.70;1801591;79;21022;-70
2021/12/08 01:37:48;;;;;;;69.37;33.88;;;;;;;-7.75;89.87;99492.60;1796745;77;20947;-70
2021/12/08 01:40:15;;;;;;;63.52;31.80;;;;;;;-7.77;89.96;99486.64;1797419;77;21592;-70
2021/12/08 01:42:47;;;;;;;60.17;28.92;;;;;;;-7.78;89.94;99480.72;1770344;78;21018;-70
2021/12/08 01:48:08;;;;;;;67.05;35.25;;;;;;;-7.86;89.93;99461.09;1801810;77;20942;-70
2021/12/08 01:50:36;;;;;;;52.20;22.90;;;;;;;-7.88;89.95;99459.36;1804651;77;21026;-70
2021/12/08 01:53:06;;;;;;;71.80;34.90;;;;;;;-7.90;89.97;99453.42;1812921;77;21914;-70
2021/12/08 01:55:33;;;;;;;58.50;29.07;;;;;;;-7.91;89.97;99454.23;1793113;78;21064;-70
2021/12/08 01:58:00;;;;;;;53.40;23.65;;;;;;;-8.02;89.85;99448.06;1820589;77;20941;-70
2021/12/08 02:00:42;;;;;;;;;;;;;;;-8.10;89.92;99441.96;1809729;77;21045;-70
2021/12/08 02:03:10;;;;;;;68.42;36.40;;;;;;;-8.15;89.95;99442.27;1811002;76;20123;-71
2021/12/08 02:05:37;;;;;;;;;;;;;;;-8.17;90.03;99432.53;1822499;77;21267;-71
2021/12/08 02:08:05;;;;;;;;;;;;;;;-8.19;90.06;99435.42;1810261;77;20081;-71
2021/12/08 02:10:33;;;;;;;63.28;28.25;;;;;;;-8.28;89.90;99435.22;1814383;77;20097;-71
2021/12/08 02:13:00;;;;;;;69.90;32.50;;;;;;;-8.30;90.02;99440.66;1811507;78;20967;-71
2021/12/08 02:15:29;;;;;;;;;;;;;;;-8.35;90.01;99433.78;1796268;78;21004;-71
2021/12/08 02:17:58;;;;;;;54.42;26.65;;;;;;;-8.35;90.12;99436.31;1791862;78;21080;-71
2021/12/08 02:20:27;;;;;;;67.80;34.13;;;;;;;-8.38;90.12;99434.98;1810942;77;20993;-71
2021/12/08 02:22:55;;;;;;;73.40;36.35;;;;;;;-8.36;90.21;99424.48;1815329;77;20958;-71
2021/12/08 02:25:25;;;;;;;69.17;34.38;;;;;;;-8.30;90.33;99431.78;1806562;77;21759;-72
2021/12/08 02:27:56;;;;;;;50.28;24.75;;;;;;;-8.23;90.40;99438.31;1803716;77;21613;-71
2021/12/08 02:30:36;;;;;;;29.92;15.78;;;;;;;-8.17;90.42;99445.19;1825910;77;21230;-71
2021/12/08 02:47:07;;;;;;;59.63;28.20;;;;;;;-7.79;90.50;99509.81;1817930;77;20947;-72
2021/12/08 02:49:22;;;;;;;53.68;28.20;;;;;;;-7.71;90.55;99509.58;1802133;78;20947;-71
2021/12/08 02:51:53;;;;;;;47.20;27.35;;;;;;;-7.65;90.53;99507.17;1805591;77;21754;-71
2021/12/08 02:54:21;;;;;;;51.75;27.13;;;;;;;-7.58;90.52;99500.58;1807651;77;21062;-71
2021/12/08 02:56:53;;;;;;;54.67;27.95;;;;;;;-7.55;90.47;99504.03;1812982;77;21060;-71
2021/12/08 02:59:20;;;;;;;49.30;26.80;;;;;;;-7.50;90.46;99510.06;1819569;77;20904;-71
2021/12/08 03:01:47;;;;;;;49.45;25.68;;;;;;;-7.46;90.44;99500.42;1810340;77;27600;-71
2021/12/08 03:04:14;;;;;;;49.63;24.98;;;;;;;-7.40;90.48;99512.79;1815165;77;21042;-71
2021/12/08 03:06:41;;;;;;;;;;;;;;;-7.39;90.41;99517.03;1817254;78;21534;-71
2021/12/08 03:09:08;;;;;;;46.20;25.23;;;;;;;-7.35;90.45;99516.28;1802000;78;21159;-71
2021/12/08 03:11:36;;;;;;;44.03;26.30;;;;;;;-7.32;90.43;99506.20;1814853;77;21002;-71
2021/12/08 03:14:10;;;;;;;47.38;24.60;;;;;;;-7.31;90.43;99512.97;1803901;78;21115;-71
2021/12/08 03:16:41;;;;;;;45.92;24.80;;;;;;;-7.28;90.44;99510.50;1804710;77;20940;-71
2021/12/08 03:19:09;;;;;;;44.55;24.43;;;;;;;-7.27;90.48;99500.39;1810335;78;22226;-71
2021/12/08 03:21:36;;;;;;;45.03;23.18;;;;;;;-7.23;90.48;99482.28;1801920;78;21896;-71
2021/12/08 03:26:48;;;;;;;45.28;24.82;;;;;;;-7.22;90.44;99478.52;1805620;78;21014;-71
2021/12/08 03:29:19;;;;;;;41.95;21.52;;;;;;;-7.19;90.48;99475.19;1797684;78;22177;-71
2021/12/08 03:31:42;;;;;;;38.60;23.90;;;;;;;-7.18;90.47;99476.89;1801767;77;20932;-71
2021/12/08 03:34:07;;;;;;;40.78;23.52;;;;;;;-7.20;90.40;99475.99;1810082;77;21251;-71
2021/12/08 03:36:36;;;;;;;42.80;23.22;;;;;;;-7.21;90.44;99470.07;1806729;77;21000;-71
2021/12/08 03:39:04;;;;;;;46.10;24.87;;;;;;;-7.19;90.50;99465.04;1784508;78;21034;-71
2021/12/08 03:41:34;;;;;;;41.88;23.22;;;;;;;-7.16;90.57;99467.64;1797355;78;20992;-71
2021/12/08 03:44:04;;;;;;;40.50;22.58;;;;;;;-7.15;90.55;99470.60;1777261;78;20947;-71
2021/12/08 03:46:38;;;;;;;46.20;24.40;;;;;;;-7.13;90.52;99464.30;1799909;78;21076;-70
2021/12/08 03:49:05;;;;;;;41.50;24.75;;;;;;;-7.12;90.57;99458.39;1811632;77;20997;-71
2021/12/08 03:51:30;;;;;;;45.05;24.65;;;;;;;-7.12;90.58;99466.85;1813703;77;20947;-71
2021/12/08 03:53:57;;;;;;;40.63;24.20;;;;;;;-7.10;90.64;99464.36;1799062;78;20918;-71
2021/12/08 03:56:24;;;;;;;43.70;23.90;;;;;;;-7.07;90.68;99460.19;1790322;78;21010;-71
2021/12/08 03:58:50;;;;;;;43.98;25.68;;;;;;;-7.03;90.55;99453.48;1812916;77;21496;-71
2021/12/08 04:01:17;;;;;;;42.85;22.75;;;;;;;-7.03;90.55;99453.48;1803325;78;21494;-71
2021/12/08 04:03:49;;;;;;;43.20;22.82;;;;;;;-7.00;90.66;99463.69;1771012;76;21015;-71
2021/12/08 04:06:28;;;;;;;43.95;22.70;;;;;;;-6.98;90.70;99456.55;1818943;76;21002;-71
2021/12/08 04:08:53;;;;;;;44.67;23.65;;;;;;;-7.00;90.56;99453.53;1808355;78;20985;-71
2021/12/08 04:11:13;;;;;;;45.55;24.90;;;;;;;-7.02;90.58;99440.84;1810926;78;21600;-71
2021/12/08 04:13:46;;;;;;;41.63;23.38;;;;;;;-7.01;90.69;99437.46;1806890;76;21074;-70
2021/12/08 04:16:17;;;;;;;35.03;17.80;;;;;;;-6.99;90.69;99437.50;1796955;78;21045;-70
2021/12/08 04:18:44;;;;;;;43.68;23.30;;;;;;;-6.98;90.64;99434.12;1806589;76;20998;-70
2021/12/08 04:21:13;;;;;;;44.00;24.77;;;;;;;-7.00;90.61;99436.66;1790721;78;21679;-71
2021/12/08 04:23:42;;;;;;;44.65;25.65;;;;;;;-7.01;90.65;99426.05;1809029;76;21931;-71
2021/12/08 04:26:17;;;;;;;51.05;24.30;;;;;;;-6.99;90.68;99429.89;1817532;76;21033;-71
2021/12/08 04:28:44;;;;;;;45.23;25.62;;;;;;;-6.99;90.66;99438.36;1823673;77;21018;-71
2021/12/08 04:31:17;;;;;;;43.28;23.67;;;;;;;-7.00;90.62;99431.58;1819461;76;27097;-71
2021/12/08 04:33:47;;;;;;;48.45;26.00;;;;;;;-6.97;90.68;99433.32;1811629;76;20948;-71
2021/12/08 04:36:16;;;;;;;45.60;25.72;;;;;;;-6.96;90.70;99430.36;1807386;77;21062;-71
2021/12/08 04:38:48;;;;;;;47.98;26.62;;;;;;;-6.94;90.71;99430.84;1823246;76;20979;-71
2021/12/08 04:41:18;;;;;;;52.83;27.20;;;;;;;-6.92;90.71;99425.77;1824136;77;21749;-71
2021/12/08 04:44:24;;;;;;;39.58;20.95;;;;;;;-6.90;90.75;99422.85;1814904;77;20979;-71
2021/12/08 04:49:37;;;;;;;54.93;25.65;;;;;;;-6.93;90.76;99416.03;1801372;76;21079;-69
2021/12/08 04:52:14;;;;;;;46.42;24.32;;;;;;;-6.95;90.72;99414.30;1793714;78;20957;-71
2021/12/08 05:08:20;;;;;;;;;;;;;;;-7.23;90.81;99392.22;1799333;78;21572;-72
2021/12/08 05:10:45;;;;;;;29.48;14.43;;;;;;;-7.29;90.74;99389.57;1800422;79;20123;-71
2021/12/08 05:13:16;;;;;;;44.40;22.58;;;;;;;-7.30;90.80;99382.80;1800365;78;21075;-71
2021/12/08 05:15:55;;;;;;;32.58;14.75;;;;;;;-7.36;90.70;99387.77;1797024;79;21049;-69
2021/12/08 05:18:26;;;;;;;31.95;16.60;;;;;;;-7.43;90.75;99385.08;1797630;77;21511;-70
2021/12/08 05:21:03;;;;;;;45.33;22.60;;;;;;;-7.47;90.79;99375.72;1802499;78;20955;-70
2021/12/08 05:23:58;;;;;;;26.52;13.22;;;;;;;-7.48;90.87;99376.55;1758333;79;21489;-70
2021/12/08 05:26:33;;;;;;;20.82;12.10;;;;;;;-7.49;90.97;99374.83;1762933;80;21040;-70
2021/12/08 05:29:07;;;;;;;27.17;12.75;;;;;;;-7.54;91.00;99373.88;1758692;79;21106;-70
2021/12/08 05:31:35;;;;;;;31.20;17.00;;;;;;;-7.58;91.06;99372.12;1759489;79;20939;-70
2021/12/08 05:34:02;;;;;;;38.73;18.07;;;;;;;-7.64;91.13;99364.39;1763283;81;21080;-70
2021/12/08 05:36:30;;;;;;;33.00;15.93;;;;;;;-7.66;91.20;99366.03;1765552;79;27524;-72
2021/12/08 05:38:58;;;;;;;27.37;12.25;;;;;;;-7.69;91.24;99368.52;1765372;80;20948;-72
2021/12/08 05:41:30;;;;;;;27.25;14.43;;;;;;;-7.71;91.38;99362.55;1762392;80;21229;-72
2021/12/08 05:43:59;;;;;;;27.40;14.60;;;;;;;-7.75;91.43;99350.23;1734691;80;20962;-72
2021/12/08 05:46:30;;;;;;;33.98;18.20;;;;;;;-7.75;91.48;99351.50;1747276;80;21041;-72
2021/12/08 05:48:57;;;;;;;34.00;16.85;;;;;;;-7.72;91.53;99361.70;1767557;80;20981;-72
2021/12/08 05:51:29;;;;;;;22.75;11.33;;;;;;;-7.72;91.53;99360.85;1759144;80;20976;-72
2021/12/08 05:54:01;;;;;;;40.85;20.10;;;;;;;-7.92;91.48;99324.55;1756816;80;21095;-72
2021/12/08 05:56:28;;;;;;;35.10;19.23;;;;;;;-7.76;91.55;99364.12;1759476;79;21052;-72
2021/12/08 05:58:57;;;;;;;;;;;;;;;-7.77;91.55;99356.09;1764391;80;21139;-72
2021/12/08 06:01:38;;;;;;;21.70;13.32;;;;;;;-7.79;91.59;99359.00;1757609;79;20320;-72
2021/12/08 06:04:07;;;;;;;21.52;12.68;;;;;;;-7.80;91.68;99363.64;1754809;80;21180;-72
2021/12/08 06:06:35;;;;;;;26.23;12.37;;;;;;;-7.82;91.68;99362.33;1761506;80;21615;-72
2021/12/08 06:09:06;;;;;;;31.95;16.50;;;;;;;-7.85;91.81;99386.77;1758052;80;21092;-72
2021/12/08 06:11:34;;;;;;;27.17;13.72;;;;;;;-7.89;91.71;99389.23;1753837;80;21039;-71
2021/12/08 06:14:03;;;;;;;25.32;13.68;;;;;;;-7.90;91.72;99391.72;1756014;80;21583;-72
2021/12/08 06:16:32;;;;;;;22.50;11.60;;;;;;;-7.96;91.68;99396.25;1758682;80;20936;-72
2021/12/08 06:18:59;;;;;;;26.68;13.65;;;;;;;-8.00;91.67;99391.95;1755447;80;21926;-72
2021/12/08 06:21:31;;;;;;;30.23;13.72;;;;;;;-8.02;91.76;99387.25;1758366;79;21012;-83
2021/12/08 06:24:07;;;;;;;28.52;14.30;;;;;;;-8.04;91.76;99388.89;1763560;79;21053;-85
2021/12/08 06:26:40;;;;;;;30.75;16.42;;;;;;;-8.06;91.75;99390.55;1753440;80;21037;-82
2021/12/08 06:29:11;;;;;;;27.42;15.72;;;;;;;-8.13;91.75;99397.14;1760364;80;21037;-81
2021/12/08 06:31:40;;;;;;;28.15;16.55;;;;;;;-8.12;91.81;99389.16;1762925;80;21090;-83
2021/12/08 06:34:08;;;;;;;34.35;18.67;;;;;;;-8.13;91.77;99388.70;1759023;80;20970;-87
2021/12/08 06:36:38;;;;;;;;;;;;;;;-8.13;91.82;99398.83;1760982;80;21451;-80
2021/12/08 06:39:34;;;;;;;32.20;17.80;;;;;;;-8.12;91.84;99399.30;1757620;80;20235;-79
2021/12/08 06:42:02;;;;;;;30.95;16.90;;;;;;;-8.14;91.82;99392.91;1740200;79;20970;-83
2021/12/08 06:44:33;;;;;;;36.40;20.43;;;;;;;-8.20;91.82;99399.53;1754463;80;21134;-86
2021/12/08 06:47:04;;;;;;;28.92;14.83;;;;;;;-8.20;91.86;99399.53;1757367;80;20941;-83
2021/12/08 06:49:32;;;;;;;25.45;14.53;;;;;;;-8.20;91.90;99390.66;1765760;80;21493;-82
2021/12/08 06:52:43;;;;;;;22.93;11.40;;;;;;;-8.23;91.90;99394.37;1770637;79;21001;-85
2021/12/08 06:55:01;;;;;;;25.35;13.83;;;;;;;-8.29;91.84;99400.15;1761463;79;21001;-85
2021/12/08 06:57:33;;;;;;;20.43;11.12;;;;;;;-8.37;91.95;99394.93;1773599;80;21059;-84
2021/12/08 07:00:18;;;;;;;25.92;13.80;;;;;;;-8.42;92.01;99392.73;1769201;80;20943;-86
2021/12/08 07:05:52;;;;;;;27.75;16.70;;;;;;;-8.41;92.12;99402.03;1773757;80;21505;-81
2021/12/08 07:08:08;;;;;;;26.95;12.98;;;;;;;-8.40;92.17;99393.63;1763497;80;21136;-82
2021/12/08 07:11:36;;;;;;;19.05;10.18;;;;;;;-8.43;92.15;99399.89;1771831;79;21043;-81
2021/12/08 07:14:33;;;;;;;22.17;13.50;;;;;;;-8.44;92.14;99398.16;1644745;83;21245;-83
2021/12/08 07:17:07;;;;;;;25.50;14.05;;;;;;;-8.43;92.22;99389.77;1636223;86;21569;-81
2021/12/08 07:20:13;;;;;;;;;;;;;;;;;;;;;
2021/12/08 07:22:37;;;;;;;26.13;14.13;;;;;;;-8.41;92.18;99403.30;1653152;83;21256;-79
2021/12/08 07:25:33;;;;;;;29.23;15.23;;;;;;;-8.39;92.19;99399.13;1648260;85;21298;-83
2021/12/08 07:28:05;;;;;;;25.80;14.50;;;;;;;-8.37;92.12;99394.08;1653472;85;21097;-81
2021/12/08 07:31:09;;;;;;;36.80;17.65;;;;;;;-8.36;92.16;99384.39;1638382;85;22999;-80
2021/12/08 07:33:37;;;;;;;23.02;12.40;;;;;;;-8.40;92.19;99380.97;1655834;85;21129;-82
2021/12/08 07:36:25;;;;;;;37.45;21.12;;;;;;;-8.44;92.21;99393.09;1631853;86;26865;-81
2021/12/08 07:38:59;;;;;;;17.98;10.90;;;;;;;-8.44;92.16;99390.56;1683275;81;21045;-79
2021/12/08 07:41:35;;;;;;;18.95;10.08;;;;;;;-8.40;92.25;99380.97;1701588;81;21748;-80
2021/12/08 07:44:12;;;;;;;21.40;11.80;;;;;;;-8.40;92.23;99377.17;1692591;81;21125;-81
2021/12/08 07:46:47;;;;;;;22.42;13.05;;;;;;;-8.39;92.19;99376.34;1664189;84;21524;-80
2021/12/08 07:49:26;;;;;;;29.47;14.10;;;;;;;-8.40;92.22;99361.98;1641917;84;21464;-78
2021/12/08 07:52:16;;;;;;;26.02;13.90;;;;;;;-8.40;92.17;99367.05;1662898;84;21208;-79
2021/12/08 07:54:53;;;;;;;23.38;14.68;;;;;;;-8.38;92.26;99352.69;1665367;84;20961;-81
2021/12/08 07:57:29;;;;;;;24.70;13.53;;;;;;;-8.39;92.18;99355.23;1621830;85;21501;-83
2021/12/08 08:00:00;;;;;;;34.53;15.60;;;;;;;-8.38;92.35;99344.23;1649075;86;21011;-80
2021/12/08 08:02:32;;;;;;;24.57;15.38;;;;;;;-8.36;92.39;99353.58;1651479;86;21561;-86
2021/12/08 08:05:04;;;;;;;34.85;21.12;;;;;;;-8.31;92.43;99358.77;1649975;85;20929;-84
2021/12/08 08:07:32;;;;;;;48.25;21.55;;;;;;;-8.30;92.41;99350.75;1649990;85;21056;-81
2021/12/08 08:10:01;;;;;;;25.50;13.98;;;;;;;-8.25;92.52;99347.91;1651747;86;20985;-82
2021/12/08 08:12:32;;;;;;;28.42;14.53;;;;;;;-8.22;92.50;99345.44;1649881;85;20906;-79
2021/12/08 08:15:02;;;;;;;30.30;16.45;;;;;;;-8.18;92.42;99348.05;1652141;85;20973;-75
2021/12/08 08:17:37;;;;;;;28.90;16.30;;;;;;;-8.14;92.41;99352.80;1649854;86;21493;-85
2021/12/08 08:20:09;;;;;;;24.67;14.85;;;;;;;-8.12;92.38;99342.30;1651140;86;20981;-90
2021/12/08 08:22:36;;;;;;;30.15;18.60;;;;;;;-8.08;92.35;99338.98;1650897;85;20914;-84
2021/12/08 08:25:35;;;;;;;31.37;15.25;;;;;;;-8.08;92.33;99336.45;1651502;85;21037;-91
2021/12/08 08:28:09;;;;;;;24.57;14.43;;;;;;;-8.16;92.28;99325.30;1646919;85;20995;-83
2021/12/08 08:30:54;;;;;;;23.00;12.75;;;;;;;-8.05;92.30;99328.06;1657840;84;21015;-84
2021/12/08 08:33:27;;;;;;;31.00;16.57;;;;;;;-8.05;92.27;99336.52;1650451;85;20929;-84
2021/12/08 08:36:04;;;;;;;24.80;12.98;;;;;;;-8.02;92.28;99335.31;1651587;85;21884;-87
2021/12/08 08:38:46;;;;;;;26.87;13.13;;;;;;;-7.96;92.31;99334.17;1650969;85;20989;-87
2021/12/08 08:41:19;;;;;;;23.07;13.65;;;;;;;-7.99;92.10;99330.72;1623892;85;20954;-87
2021/12/08 08:43:58;;;;;;;22.30;13.28;;;;;;;-8.03;92.15;99328.55;1651017;85;21124;-92
2021/12/08 08:46:33;;;;;;;23.27;12.55;;;;;;;-8.03;92.27;99323.89;1650888;85;20922;-81
2021/12/08 08:49:04;;;;;;;26.55;17.62;;;;;;;-8.02;92.37;99328.98;1653173;85;20973;-87
2021/12/08 08:51:47;;;;;;;30.85;18.17;;;;;;;-7.98;92.44;99330.77;1649203;85;20993;-87
2021/12/08 08:54:20;;;;;;;26.77;14.93;;;;;;;-7.95;92.41;99348.56;1649782;86;20962;-87
2021/12/08 08:56:55;;;;;;;22.13;14.15;;;;;;;-7.96;92.32;99330.78;1648796;85;21176;-87
2021/12/08 08:59:27;;;;;;;23.27;15.15;;;;;;;-7.96;92.33;99327.83;1650469;85;20906;-85
2021/12/08 09:02:03;;;;;;;23.87;13.90;;;;;;;-7.94;92.34;99331.68;1635797;87;21477;-87
2021/12/08 09:04:34;;;;;;;19.50;11.88;;;;;;;-7.94;92.24;99319.86;1634336;86;20919;-84
2021/12/08 09:07:06;;;;;;;23.65;14.35;;;;;;;-7.96;92.21;99324.03;1668859;84;21104;-82
2021/12/08 09:09:39;;;;;;;26.20;16.27;;;;;;;-7.90;92.40;99330.52;1663264;84;22040;-84
2021/12/08 09:12:15;;;;;;;27.27;17.30;;;;;;;-7.80;92.60;99329.42;1641852;86;20982;-85
2021/12/08 09:14:53;;;;;;;19.90;11.15;;;;;;;-7.75;92.54;99333.76;1642488;85;21743;-85
2021/12/08 09:17:28;;;;;;;22.67;12.47;;;;;;;-7.74;92.21;99329.54;1630970;85;20961;-87
2021/12/08 09:20:30;;;;;;;36.60;20.15;;;;;;;-7.78;92.16;99335.39;1648387;85;21469;-86
2021/12/08 09:23:15;;;;;;;28.50;19.45;;;;;;;-7.64;92.68;99341.58;1651024;85;21452;-87
2021/12/08 09:26:02;;;;;;;20.45;12.15;;;;;;;-7.50;92.59;99356.64;1634738;86;21037;-86
2021/12/08 09:28:35;;;;;;;;;;;;;;;-7.54;91.99;99340.91;1645333;85;21009;-80
2021/12/08 09:31:32;;;;;;;16.17;10.10;;;;;;;-7.65;91.72;99352.53;1643873;85;20630;-81
2021/12/08 09:34:36;;;;;;;39.63;19.40;;;;;;;-7.64;91.89;99346.65;1667135;84;20993;-79
2021/12/08 09:37:08;;;;;;;27.10;15.83;;;;;;;-7.68;91.83;99344.86;1665139;84;21941;-80
2021/12/08 09:39:49;;;;;;;30.68;18.80;;;;;;;-7.77;91.45;99342.16;1665143;84;20952;-80
2021/12/08 09:42:42;;;;;;;38.08;23.75;;;;;;;-7.81;91.63;99337.83;1651444;86;20938;-88
2021/12/08 09:45:26;;;;;;;40.88;26.27;;;;;;;-7.74;92.06;99337.14;1648195;85;20937;-88
2021/12/08 09:47:53;;;;;;;24.12;15.35;;;;;;;-7.63;92.12;99333.14;1647231;85;20990;-85
2021/12/08 09:50:21;;;;;;;25.72;14.00;;;;;;;-7.53;92.04;99329.96;1626983;86;21067;-82
2021/12/08 09:52:51;;;;;;;;;;;;;;;-7.57;91.61;99324.38;1654598;85;20922;-81
2021/12/08 09:55:21;;;;;;;31.48;18.45;;;;;;;-7.68;91.20;99327.12;1697581;84;20210;-79
2021/12/08 09:57:52;;;;;;;47.85;28.00;;;;;;;-7.79;91.13;99326.05;1698316;83;20976;-78
2021/12/08 10:00:29;;;;;;;55.03;32.58;;;;;;;-7.78;91.50;99330.31;1696788;83;20914;-77
2021/12/08 10:02:59;;;;;;;45.45;27.93;;;;;;;-7.77;91.50;99334.55;1700465;82;21306;-84
2021/12/08 10:05:31;;;;;;;51.30;31.15;;;;;;;-7.60;92.07;99333.19;1637666;87;20969;-86
2021/12/08 10:08:02;;;;;;;53.70;31.10;;;;;;;-7.46;92.12;99321.63;1637689;87;20982;-85
2021/12/08 10:10:28;;;;;;;47.13;24.63;;;;;;;-7.35;91.94;99320.98;1634794;86;20952;-75
2021/12/08 10:12:55;;;;;;;51.53;28.40;;;;;;;-7.23;91.96;99323.72;1654317;85;20976;-82
2021/12/08 10:15:26;;;;;;;56.85;32.20;;;;;;;-7.13;91.66;99312.91;1697385;83;21201;-86
2021/12/08 10:17:55;;;;;;;34.63;19.90;;;;;;;-7.13;91.28;99315.45;1696544;83;21009;-83
2021/12/08 10:20:31;;;;;;;60.83;33.35;;;;;;;-7.10;91.08;99300.27;1698059;83;20910;-86
2021/12/08 10:23:29;;;;;;;60.33;33.78;;;;;;;-7.10;91.06;99310.84;1696483;82;21499;-84
2021/12/08 10:26:01;;;;;;;56.05;30.97;;;;;;;-7.04;91.17;99318.13;1697847;83;21012;-81
2021/12/08 10:28:32;;;;;;;51.37;30.57;;;;;;;-6.92;91.16;99310.28;1636489;86;21102;-79
2021/12/08 10:31:14;;;;;;;45.80;29.50;;;;;;;-6.89;90.99;99298.52;1637355;86;21556;-79
2021/12/08 10:34:01;;;;;;;51.20;27.60;;;;;;;-6.95;90.69;99298.81;1648849;85;20958;-79
2021/12/08 10:36:55;;;;;;;45.70;27.20;;;;;;;-7.00;90.56;99299.61;1630491;86;21068;-77
2021/12/08 10:39:47;;;;;;;50.43;30.30;;;;;;;-7.08;90.46;99296.09;1653399;85;20909;-78
2021/12/08 10:42:24;;;;;;;58.23;33.83;;;;;;;-7.09;90.63;99304.51;1697406;83;21109;-76
2021/12/08 10:45:09;;;;;;;53.60;33.00;;;;;;;-7.06;90.87;99303.29;1694250;83;20922;-69
2021/12/08 10:47:44;;;;;;;49.42;29.80;;;;;;;-7.02;90.75;99306.33;1657308;84;20914;-76
2021/12/08 10:55:56;;;;;;;60.48;34.70;;;;;;;-7.06;90.87;99298.21;1695825;83;21030;-77
2021/12/08 10:58:28;;;;;;;58.13;33.38;;;;;;;-6.99;90.82;99300.45;1693940;84;20875;-76
2021/12/08 11:00:58;;;;;;;48.70;27.98;;;;;;;-7.04;90.58;99295.30;1696097;83;21480;-78
2021/12/08 11:03:31;;;;;;;37.65;20.08;;;;;;;-7.05;90.47;99285.98;1697351;83;21449;-83
2021/12/08 11:06:01;;;;;;;49.55;31.10;;;;;;;-7.09;90.30;99289.70;1678034;83;20945;-80
2021/12/08 11:08:38;;;;;;;57.78;36.20;;;;;;;-7.13;90.45;99283.73;1694756;83;22254;-80
2021/12/08 11:11:20;;;;;;;50.55;27.13;;;;;;;-7.10;90.58;99290.13;1695338;83;20996;-78
2021/12/08 11:13:49;;;;;;;64.92;36.23;;;;;;;-7.08;90.35;99285.94;1697510;83;20944;-79
2021/12/08 11:16:32;;;;;;;58.25;34.35;;;;;;;-7.10;90.59;99291.81;1695955;83;21447;-79
2021/12/08 11:19:21;;;;;;;58.58;36.03;;;;;;;-7.01;90.75;99290.27;1691007;83;20972;-78
2021/12/08 11:21:53;;;;;;;58.08;35.95;;;;;;;-6.91;90.79;99287.89;1690243;83;21035;-79
2021/12/08 11:24:35;;;;;;;57.85;34.98;;;;;;;-6.86;90.61;99296.41;1691223;83;20957;-78
2021/12/08 11:27:06;;;;;;;59.27;36.73;;;;;;;-6.81;90.55;99287.19;1690139;83;20949;-73
2021/12/08 11:29:40;;;;;;;59.23;32.80;;;;;;;-6.86;90.30;99283.72;1694646;83;20971;-76
2021/12/08 11:32:10;;;;;;;59.95;31.17;;;;;;;-6.95;89.97;99283.59;1696269;84;21047;-78
2021/12/08 11:34:42;;;;;;;58.40;31.27;;;;;;;-7.08;89.73;99284.67;1690054;83;20949;-82
2021/12/08 11:37:13;;;;;;;58.08;32.75;;;;;;;-7.21;89.83;99276.41;1687578;84;21490;-76
2021/12/08 11:39:45;;;;;;;43.13;22.17;;;;;;;-7.33;89.69;99279.59;1692083;83;20968;-76
2021/12/08 11:42:19;;;;;;;58.95;36.20;;;;;;;-7.43;89.74;99268.42;1696304;83;20862;-81
2021/12/08 11:44:49;;;;;;;62.48;36.98;;;;;;;-7.51;90.06;99277.57;1695621;84;21444;-83
2021/12/08 11:47:21;;;;;;;57.27;34.45;;;;;;;-7.46;90.42;99274.70;1698282;83;21242;-85
2021/12/08 11:49:56;;;;;;;55.10;29.90;;;;;;;-7.37;90.51;99275.70;1699897;83;20964;-78
2021/12/08 11:52:29;;;;;;;42.60;23.22;;;;;;;-7.47;90.01;99271.75;1697274;83;21559;-78
2021/12/08 11:55:02;;;;;;;57.05;35.15;;;;;;;-7.64;89.74;99278.20;1700096;83;21473;-77
2021/12/08 11:57:42;;;;;;;45.95;22.67;;;;;;;-7.81;89.86;99287.14;1696223;83;20922;-80
2021/12/08 12:00:28;;;;;;;34.03;18.27;;;;;;;-7.88;89.98;99274.36;1703614;83;21905;-80
2021/12/08 12:03:05;;;;;;;47.17;27.73;;;;;;;-7.90;90.20;99273.88;1698245;84;20981;-82
2021/12/08 12:05:36;;;;;;;35.30;20.33;;;;;;;-8.04;89.99;99286.28;1693001;82;20937;-87
2021/12/08 12:08:06;;;;;;;35.17;17.80;;;;;;;-8.07;90.24;99274.81;1698176;83;20969;-82
2021/12/08 12:10:38;;;;;;;49.13;30.45;;;;;;;-8.05;90.37;99275.71;1699817;83;21923;-93
2021/12/08 12:13:08;;;;;;;45.08;26.75;;;;;;;-8.03;90.62;99289.27;1698325;83;21080;-88
2021/12/08 12:15:34;;;;;;;27.55;17.67;;;;;;;-7.96;90.57;99288.55;1697587;84;20922;-79
2021/12/08 12:18:01;;;;;;;;;;;;;;;-8.06;90.06;99289.22;1676728;83;20937;-81
2021/12/08 12:20:50;;;;;;;50.38;28.10;;;;;;;-8.14;90.25;99273.00;1697560;83;20481;-86
2021/12/08 12:23:54;;;;;;;45.92;26.55;;;;;;;-8.11;90.61;99288.27;1699025;83;20933;-88
2021/12/08 12:26:53;;;;;;;67.30;40.67;;;;;;;-8.00;90.97;99286.80;1701634;82;21071;-79
2021/12/08 12:29:38;;;;;;;58.80;32.00;;;;;;;-7.91;90.92;99294.99;1701968;82;20976;-84
2021/12/08 12:32:37;;;;;;;;;;;;;;;-7.81;90.96;99293.48;1643871;86;20991;-88
2021/12/08 12:35:27;;;;;;;51.60;29.80;;;;;;;-7.76;90.82;99285.55;1638562;85;20850;-85
2021/12/08 12:38:05;;;;;;;47.50;29.90;;;;;;;-7.76;90.70;99290.63;1643307;85;20962;-80